# Tabular Observed and Forecast Hydrograph Information
#
# Location: East Walker River - Strosnider Ditch (EWSN2)
#
# File Generation Time: 09/05/2026 at 06:54 AM PDT
# Data Interval: 1 Hour
#
# Most Recent Date & Time of Maximum Observed: 08/31/2026 at 06:00 AM PDT
# Maximum Observed Stage: 4.25 Feet
# Maximum Observed Flow: 215 cfs
#
# Earliest Date & Time of Maximum Forecast: 09/09/2026 at 07:00 PM PDT
# Maximum Forecast Stage: 4.17 Feet
# Maximum Forecast Flow: 204 cfs
#
# OBSERVED
#
# Date & Time (Local) Stage (Feet) Flow (cfs) Trend Observed Status
# ---------------------------------------------------------------------------------
08/31/2026 06 AM PDT 4.25 215 Normal
08/31/2026 07 AM PDT 4.22 211 - Normal
08/31/2026 08 AM PDT 4.22 211 0 Normal
08/31/2026 09 AM PDT 4.23 212 + Normal
08/31/2026 10 AM PDT 4.19 207 - Normal
08/31/2026 11 AM PDT 4.21 209 + Normal
08/31/2026 12 PM PDT 4.23 212 + Normal
08/31/2026 01 PM PDT 4.20 208 - Normal
08/31/2026 02 PM PDT 4.22 211 + Normal
08/31/2026 03 PM PDT 4.19 207 - Normal
08/31/2026 04 PM PDT 4.18 205 - Normal
08/31/2026 05 PM PDT 4.19 207 + Normal
08/31/2026 06 PM PDT 4.14 200 - Normal
08/31/2026 07 PM PDT 4.21 209 + Normal
08/31/2026 08 PM PDT 4.14 200 - Normal
08/31/2026 09 PM PDT 4.17 204 + Normal
08/31/2026 10 PM PDT 4.17 204 0 Normal
08/31/2026 11 PM PDT 4.16 202 - Normal
09/01/2026 12 AM PDT 4.21 209 + Normal
09/01/2026 01 AM PDT 4.21 209 0 Normal
09/01/2026 02 AM PDT 4.22 211 + Normal
09/01/2026 03 AM PDT 4.18 205 - Normal
09/01/2026 04 AM PDT 4.21 209 + Normal
09/01/2026 05 AM PDT 4.23 212 + Normal
09/01/2026 06 AM PDT 4.23 212 0 Normal
09/01/2026 07 AM PDT 4.22 211 - Normal
09/01/2026 08 AM PDT 4.21 209 - Normal
09/01/2026 09 AM PDT 4.16 202 - Normal
09/01/2026 10 AM PDT 4.20 208 + Normal
09/01/2026 11 AM PDT 4.15 201 - Normal
09/01/2026 12 PM PDT 4.14 200 - Normal
09/01/2026 01 PM PDT 4.16 202 + Normal
09/01/2026 02 PM PDT 4.17 204 + Normal
09/01/2026 03 PM PDT 4.17 204 0 Normal
09/01/2026 04 PM PDT 4.17 204 0 Normal
09/01/2026 05 PM PDT 4.13 198 - Normal
09/01/2026 06 PM PDT 4.11 195 - Normal
09/01/2026 07 PM PDT 4.10 194 - Normal
09/01/2026 08 PM PDT 4.06 188 - Normal
09/01/2026 09 PM PDT 4.04 186 - Normal
09/01/2026 10 PM PDT 4.04 186 0 Normal
09/01/2026 11 PM PDT 4.04 186 0 Normal
09/02/2026 12 AM PDT 4.09 193 + Normal
09/02/2026 01 AM PDT 4.04 186 - Normal
09/02/2026 02 AM PDT 4.06 188 + Normal
09/02/2026 03 AM PDT 4.07 190 + Normal
09/02/2026 04 AM PDT 4.05 187 - Normal
09/02/2026 05 AM PDT 4.06 188 + Normal
09/02/2026 06 AM PDT 4.03 184 - Normal
09/02/2026 07 AM PDT 4.05 187 + Normal
09/02/2026 08 AM PDT 4.05 187 0 Normal
09/02/2026 09 AM PDT 4.04 186 - Normal
09/02/2026 10 AM PDT 4.05 187 + Normal
09/02/2026 11 AM PDT 4.07 190 + Normal
09/02/2026 12 PM PDT 4.05 187 - Normal
09/02/2026 01 PM PDT 4.06 188 + Normal
09/02/2026 02 PM PDT 4.05 187 - Normal
09/02/2026 03 PM PDT 4.05 187 0 Normal
09/02/2026 04 PM PDT 4.04 186 - Normal
09/02/2026 05 PM PDT 4.03 184 - Normal
09/02/2026 06 PM PDT 4.03 184 0 Normal
09/02/2026 07 PM PDT 4.03 184 0 Normal
09/02/2026 08 PM PDT 4.02 183 - Normal
09/02/2026 09 PM PDT 4.07 190 + Normal
09/02/2026 10 PM PDT 4.04 186 - Normal
09/02/2026 11 PM PDT 4.02 183 - Normal
09/03/2026 12 AM PDT 4.04 186 + Normal
09/03/2026 01 AM PDT 4.05 187 + Normal
09/03/2026 02 AM PDT 4.03 184 - Normal
09/03/2026 03 AM PDT 4.10 194 + Normal
09/03/2026 04 AM PDT 4.06 188 - Normal
09/03/2026 05 AM PDT 4.07 190 + Normal
09/03/2026 06 AM PDT 4.08 191 + Normal
09/03/2026 07 AM PDT 4.04 186 - Normal
09/03/2026 08 AM PDT 4.03 184 - Normal
09/03/2026 09 AM PDT 4.03 184 0 Normal
09/03/2026 10 AM PDT 4.04 186 + Normal
09/03/2026 11 AM PDT 4.04 186 0 Normal
09/03/2026 12 PM PDT 4.04 186 0 Normal
09/03/2026 01 PM PDT 4.02 183 - Normal
09/03/2026 02 PM PDT 4.01 182 - Normal
09/03/2026 03 PM PDT 4.01 182 0 Normal
09/03/2026 04 PM PDT 3.99 179 - Normal
09/03/2026 05 PM PDT 3.99 179 0 Normal
09/03/2026 06 PM PDT 3.99 179 0 Normal
09/03/2026 07 PM PDT 3.96 175 - Normal
09/03/2026 08 PM PDT 3.99 179 + Normal
09/03/2026 09 PM PDT 3.95 173 - Normal
09/03/2026 10 PM PDT 3.96 175 + Normal
09/03/2026 11 PM PDT 3.97 176 + Normal
09/04/2026 12 AM PDT 3.97 176 0 Normal
09/04/2026 01 AM PDT 3.97 176 0 Normal
09/04/2026 02 AM PDT 3.98 178 + Normal
09/04/2026 03 AM PDT 3.97 176 - Normal
09/04/2026 04 AM PDT 3.99 179 + Normal
09/04/2026 05 AM PDT 4.01 182 + Normal
09/04/2026 06 AM PDT 4.00 180 - Normal
09/04/2026 07 AM PDT 4.00 180 0 Normal
09/04/2026 08 AM PDT 4.00 180 0 Normal
09/04/2026 09 AM PDT 3.99 179 - Normal
09/04/2026 10 AM PDT 4.00 180 + Normal
09/04/2026 11 AM PDT 4.01 182 + Normal
09/04/2026 12 PM PDT 4.00 180 - Normal
09/04/2026 01 PM PDT 4.01 182 + Normal
09/04/2026 02 PM PDT 3.98 178 - Normal
09/04/2026 03 PM PDT 3.99 179 + Normal
09/04/2026 04 PM PDT 3.95 173 - Normal
09/04/2026 05 PM PDT 3.96 175 + Normal
09/04/2026 06 PM PDT 3.96 175 0 Normal
09/04/2026 07 PM PDT 3.95 173 - Normal
09/04/2026 08 PM PDT 3.95 173 0 Normal
09/04/2026 09 PM PDT 3.95 173 0 Normal
09/04/2026 10 PM PDT 3.97 176 + Normal
09/04/2026 11 PM PDT 3.99 179 + Normal
09/05/2026 12 AM PDT 3.98 178 - Normal
09/05/2026 01 AM PDT 3.97 176 - Normal
09/05/2026 02 AM PDT 4.00 180 + Normal
09/05/2026 03 AM PDT 3.98 178 - Normal
09/05/2026 04 AM PDT 3.98 178 0 Normal
09/05/2026 05 AM PDT 3.99 179 + Normal
09/05/2026 06 AM PDT 3.99 179 0 Normal
#
# FORECAST
#
# Date & Time (Local) Stage (Feet) Flow (cfs) Trend Forecast Status
# ---------------------------------------------------------------------------------
09/05/2026 07 AM PDT 3.99 179 Normal
09/05/2026 08 AM PDT 3.99 179 0 Normal
09/05/2026 09 AM PDT 4.00 180 + Normal
09/05/2026 10 AM PDT 4.00 180 0 Normal
09/05/2026 11 AM PDT 4.00 180 0 Normal
09/05/2026 12 PM PDT 4.00 180 0 Normal
09/05/2026 01 PM PDT 4.00 180 0 Normal
09/05/2026 02 PM PDT 4.01 182 + Normal
09/05/2026 03 PM PDT 4.03 184 + Normal
09/05/2026 04 PM PDT 4.04 186 + Normal
09/05/2026 05 PM PDT 4.06 188 + Normal
09/05/2026 06 PM PDT 4.07 190 + Normal
09/05/2026 07 PM PDT 4.08 191 + Normal
09/05/2026 08 PM PDT 4.09 193 + Normal
09/05/2026 09 PM PDT 4.10 194 + Normal
09/05/2026 10 PM PDT 4.10 194 0 Normal
09/05/2026 11 PM PDT 4.11 195 + Normal
09/06/2026 12 AM PDT 4.11 195 0 Normal
09/06/2026 01 AM PDT 4.12 197 + Normal
09/06/2026 02 AM PDT 4.12 197 0 Normal
09/06/2026 03 AM PDT 4.13 198 + Normal
09/06/2026 04 AM PDT 4.13 198 0 Normal
09/06/2026 05 AM PDT 4.13 198 0 Normal
09/06/2026 06 AM PDT 4.13 198 0 Normal
09/06/2026 07 AM PDT 4.14 200 + Normal
09/06/2026 08 AM PDT 4.14 200 0 Normal
09/06/2026 09 AM PDT 4.14 200 0 Normal
09/06/2026 10 AM PDT 4.14 200 0 Normal
09/06/2026 11 AM PDT 4.14 200 0 Normal
09/06/2026 12 PM PDT 4.14 200 0 Normal
09/06/2026 01 PM PDT 4.15 201 + Normal
09/06/2026 02 PM PDT 4.15 201 0 Normal
09/06/2026 03 PM PDT 4.15 201 0 Normal
09/06/2026 04 PM PDT 4.15 201 0 Normal
09/06/2026 05 PM PDT 4.15 201 0 Normal
09/06/2026 06 PM PDT 4.15 201 0 Normal
09/06/2026 07 PM PDT 4.15 201 0 Normal
09/06/2026 08 PM PDT 4.15 201 0 Normal
09/06/2026 09 PM PDT 4.15 201 0 Normal
09/06/2026 10 PM PDT 4.16 202 + Normal
09/06/2026 11 PM PDT 4.16 202 0 Normal
09/07/2026 12 AM PDT 4.16 202 0 Normal
09/07/2026 01 AM PDT 4.16 202 0 Normal
09/07/2026 02 AM PDT 4.16 202 0 Normal
09/07/2026 03 AM PDT 4.16 202 0 Normal
09/07/2026 04 AM PDT 4.16 202 0 Normal
09/07/2026 05 AM PDT 4.16 202 0 Normal
09/07/2026 06 AM PDT 4.16 202 0 Normal
09/07/2026 07 AM PDT 4.16 202 0 Normal
09/07/2026 08 AM PDT 4.16 202 0 Normal
09/07/2026 09 AM PDT 4.16 202 0 Normal
09/07/2026 10 AM PDT 4.16 202 0 Normal
09/07/2026 11 AM PDT 4.16 202 0 Normal
09/07/2026 12 PM PDT 4.16 202 0 Normal
09/07/2026 01 PM PDT 4.16 202 0 Normal
09/07/2026 02 PM PDT 4.16 202 0 Normal
09/07/2026 03 PM PDT 4.16 202 0 Normal
09/07/2026 04 PM PDT 4.16 202 0 Normal
09/07/2026 05 PM PDT 4.16 202 0 Normal
09/07/2026 06 PM PDT 4.16 202 0 Normal
09/07/2026 07 PM PDT 4.16 202 0 Normal
09/07/2026 08 PM PDT 4.16 202 0 Normal
09/07/2026 09 PM PDT 4.16 202 0 Normal
09/07/2026 10 PM PDT 4.16 202 0 Normal
09/07/2026 11 PM PDT 4.16 202 0 Normal
09/08/2026 12 AM PDT 4.16 202 0 Normal
09/08/2026 01 AM PDT 4.16 202 0 Normal
09/08/2026 02 AM PDT 4.16 202 0 Normal
09/08/2026 03 AM PDT 4.16 202 0 Normal
09/08/2026 04 AM PDT 4.16 202 0 Normal
09/08/2026 05 AM PDT 4.16 202 0 Normal
09/08/2026 06 AM PDT 4.16 202 0 Normal
09/08/2026 07 AM PDT 4.16 202 0 Normal
09/08/2026 08 AM PDT 4.16 202 0 Normal
09/08/2026 09 AM PDT 4.16 202 0 Normal
09/08/2026 10 AM PDT 4.16 202 0 Normal
09/08/2026 11 AM PDT 4.16 202 0 Normal
09/08/2026 12 PM PDT 4.16 202 0 Normal
09/08/2026 01 PM PDT 4.16 202 0 Normal
09/08/2026 02 PM PDT 4.16 202 0 Normal
09/08/2026 03 PM PDT 4.16 202 0 Normal
09/08/2026 04 PM PDT 4.16 202 0 Normal
09/08/2026 05 PM PDT 4.16 202 0 Normal
09/08/2026 06 PM PDT 4.16 202 0 Normal
09/08/2026 07 PM PDT 4.16 202 0 Normal
09/08/2026 08 PM PDT 4.16 202 0 Normal
09/08/2026 09 PM PDT 4.16 202 0 Normal
09/08/2026 10 PM PDT 4.16 202 0 Normal
09/08/2026 11 PM PDT 4.16 202 0 Normal
09/09/2026 12 AM PDT 4.16 202 0 Normal
09/09/2026 01 AM PDT 4.16 202 0 Normal
09/09/2026 02 AM PDT 4.16 202 0 Normal
09/09/2026 03 AM PDT 4.16 202 0 Normal
09/09/2026 04 AM PDT 4.16 202 0 Normal
09/09/2026 05 AM PDT 4.16 202 0 Normal
09/09/2026 06 AM PDT 4.16 202 0 Normal
09/09/2026 07 AM PDT 4.16 202 0 Normal
09/09/2026 08 AM PDT 4.16 202 0 Normal
09/09/2026 09 AM PDT 4.16 202 0 Normal
09/09/2026 10 AM PDT 4.16 202 0 Normal
09/09/2026 11 AM PDT 4.16 202 0 Normal
09/09/2026 12 PM PDT 4.16 202 0 Normal
09/09/2026 01 PM PDT 4.16 202 0 Normal
09/09/2026 02 PM PDT 4.16 202 0 Normal
09/09/2026 03 PM PDT 4.16 202 0 Normal
09/09/2026 04 PM PDT 4.16 202 0 Normal
09/09/2026 05 PM PDT 4.16 202 0 Normal
09/09/2026 06 PM PDT 4.16 202 0 Normal
09/09/2026 07 PM PDT 4.17 204 + Normal
09/09/2026 08 PM PDT 4.17 204 0 Normal
09/09/2026 09 PM PDT 4.17 204 0 Normal
09/09/2026 10 PM PDT 4.17 204 0 Normal
09/09/2026 11 PM PDT 4.17 204 0 Normal
09/10/2026 12 AM PDT 4.17 204 0 Normal
09/10/2026 01 AM PDT 4.17 204 0 Normal
09/10/2026 02 AM PDT 4.17 204 0 Normal
09/10/2026 03 AM PDT 4.17 204 0 Normal
09/10/2026 04 AM PDT 4.17 204 0 Normal
09/10/2026 05 AM PDT 4.17 204 0 Normal
#
# NOTE 1: Stages are rounded to the nearest hundredth (.01) of a foot.
# NOTE 2: Flows are rounded to the nearest (1) cfs.
# NOTE 3: Trends are determined using hourly change in unrounded stage and flow.
# NOTE 4: Maximum Values are determined using unrounded stage and flow.
|